sensor_id;sensor_type;location;lat;lon;timestamp;pressure;altitude;pressure_sealevel;temperature
9119;BMP180;4594;50.994;7.126;2023-05-27T00:00:08;101776.00;;;16.20
9119;BMP180;4594;50.994;7.126;2023-05-27T00:02:34;101770.00;;;16.20
9119;BMP180;4594;50.994;7.126;2023-05-27T00:05:00;101779.00;;;16.20
9119;BMP180;4594;50.994;7.126;2023-05-27T00:07:26;101774.00;;;16.10
9119;BMP180;4594;50.994;7.126;2023-05-27T00:09:53;101773.00;;;16.10
9119;BMP180;4594;50.994;7.126;2023-05-27T00:12:19;101775.00;;;16.10
9119;BMP180;4594;50.994;7.126;2023-05-27T00:14:46;101776.00;;;16.00
9119;BMP180;4594;50.994;7.126;2023-05-27T00:17:11;101782.00;;;16.00
9119;BMP180;4594;50.994;7.126;2023-05-27T00:19:42;101787.00;;;15.90
9119;BMP180;4594;50.994;7.126;2023-05-27T00:22:08;101775.00;;;15.90
9119;BMP180;4594;50.994;7.126;2023-05-27T00:24:34;101777.00;;;15.90
9119;BMP180;4594;50.994;7.126;2023-05-27T00:27:09;101780.00;;;15.80
9119;BMP180;4594;50.994;7.126;2023-05-27T00:29:36;101780.00;;;15.80
9119;BMP180;4594;50.994;7.126;2023-05-27T00:32:03;101785.00;;;15.70
9119;BMP180;4594;50.994;7.126;2023-05-27T00:34:30;101778.00;;;15.70
9119;BMP180;4594;50.994;7.126;2023-05-27T00:36:57;101779.00;;;15.70
9119;BMP180;4594;50.994;7.126;2023-05-27T00:39:22;101762.00;;;15.60
9119;BMP180;4594;50.994;7.126;2023-05-27T00:41:49;101778.00;;;15.60
9119;BMP180;4594;50.994;7.126;2023-05-27T00:44:17;101777.00;;;15.60
9119;BMP180;4594;50.994;7.126;2023-05-27T00:46:44;101784.00;;;15.50
9119;BMP180;4594;50.994;7.126;2023-05-27T00:49:12;101770.00;;;15.50
9119;BMP180;4594;50.994;7.126;2023-05-27T00:51:38;101773.00;;;15.50
9119;BMP180;4594;50.994;7.126;2023-05-27T00:54:07;101779.00;;;15.40
9119;BMP180;4594;50.994;7.126;2023-05-27T00:56:33;101784.00;;;15.40
9119;BMP180;4594;50.994;7.126;2023-05-27T00:58:59;101794.00;;;15.40
9119;BMP180;4594;50.994;7.126;2023-05-27T01:01:25;101787.00;;;15.30
9119;BMP180;4594;50.994;7.126;2023-05-27T01:03:52;101787.00;;;15.30
9119;BMP180;4594;50.994;7.126;2023-05-27T01:06:52;101766.00;;;15.20
9119;BMP180;4594;50.994;7.126;2023-05-27T01:12:07;101793.00;;;15.20
9119;BMP180;4594;50.994;7.126;2023-05-27T01:14:36;101770.00;;;15.10
9119;BMP180;4594;50.994;7.126;2023-05-27T01:17:06;101780.00;;;15.10
9119;BMP180;4594;50.994;7.126;2023-05-27T01:19:39;101771.00;;;15.00
9119;BMP180;4594;50.994;7.126;2023-05-27T01:22:12;101785.00;;;15.00
9119;BMP180;4594;50.994;7.126;2023-05-27T01:24:41;101777.00;;;15.00
9119;BMP180;4594;50.994;7.126;2023-05-27T01:27:10;101778.00;;;14.90
9119;BMP180;4594;50.994;7.126;2023-05-27T01:29:41;101772.00;;;14.90
9119;BMP180;4594;50.994;7.126;2023-05-27T01:32:19;101761.00;;;14.90
9119;BMP180;4594;50.994;7.126;2023-05-27T01:37:56;101771.00;;;14.70
9119;BMP180;4594;50.994;7.126;2023-05-27T01:40:22;101768.00;;;14.70
9119;BMP180;4594;50.994;7.126;2023-05-27T01:42:49;101765.00;;;14.70
9119;BMP180;4594;50.994;7.126;2023-05-27T01:45:15;101774.00;;;14.60
9119;BMP180;4594;50.994;7.126;2023-05-27T01:47:43;101757.00;;;14.60
9119;BMP180;4594;50.994;7.126;2023-05-27T01:50:10;101774.00;;;14.50
9119;BMP180;4594;50.994;7.126;2023-05-27T01:52:36;101768.00;;;14.50
9119;BMP180;4594;50.994;7.126;2023-05-27T01:55:03;101775.00;;;14.50
9119;BMP180;4594;50.994;7.126;2023-05-27T01:57:32;101764.00;;;14.50
9119;BMP180;4594;50.994;7.126;2023-05-27T01:59:57;101761.00;;;14.40
9119;BMP180;4594;50.994;7.126;2023-05-27T02:02:23;101765.00;;;14.40
9119;BMP180;4594;50.994;7.126;2023-05-27T02:04:49;101769.00;;;14.30
9119;BMP180;4594;50.994;7.126;2023-05-27T02:07:15;101763.00;;;14.30
9119;BMP180;4594;50.994;7.126;2023-05-27T02:09:42;101751.00;;;14.20
9119;BMP180;4594;50.994;7.126;2023-05-27T02:12:08;101767.00;;;14.20
9119;BMP180;4594;50.994;7.126;2023-05-27T02:14:34;101771.00;;;14.20
9119;BMP180;4594;50.994;7.126;2023-05-27T02:17:05;101770.00;;;14.10
9119;BMP180;4594;50.994;7.126;2023-05-27T02:19:31;101751.00;;;14.10
9119;BMP180;4594;50.994;7.126;2023-05-27T02:21:56;101752.00;;;14.00
9119;BMP180;4594;50.994;7.126;2023-05-27T02:24:22;101750.00;;;14.00
9119;BMP180;4594;50.994;7.126;2023-05-27T02:26:48;101758.00;;;13.90
9119;BMP180;4594;50.994;7.126;2023-05-27T02:29:13;101752.00;;;13.80
9119;BMP180;4594;50.994;7.126;2023-05-27T02:31:39;101755.00;;;13.80
9119;BMP180;4594;50.994;7.126;2023-05-27T02:34:05;101757.00;;;13.70
9119;BMP180;4594;50.994;7.126;2023-05-27T02:36:30;101764.00;;;13.70
9119;BMP180;4594;50.994;7.126;2023-05-27T02:38:56;101758.00;;;13.60
9119;BMP180;4594;50.994;7.126;2023-05-27T02:41:22;101764.00;;;13.60
9119;BMP180;4594;50.994;7.126;2023-05-27T02:43:47;101758.00;;;13.50
9119;BMP180;4594;50.994;7.126;2023-05-27T02:46:13;101761.00;;;13.50
9119;BMP180;4594;50.994;7.126;2023-05-27T02:48:39;101765.00;;;13.40
9119;BMP180;4594;50.994;7.126;2023-05-27T02:51:04;101764.00;;;13.40
9119;BMP180;4594;50.994;7.126;2023-05-27T02:53:30;101764.00;;;13.30
9119;BMP180;4594;50.994;7.126;2023-05-27T02:55:56;101757.00;;;13.30
9119;BMP180;4594;50.994;7.126;2023-05-27T02:58:21;101763.00;;;13.30
9119;BMP180;4594;50.994;7.126;2023-05-27T03:00:47;101752.00;;;13.20
9119;BMP180;4594;50.994;7.126;2023-05-27T03:03:14;101767.00;;;13.20
9119;BMP180;4594;50.994;7.126;2023-05-27T03:05:39;101758.00;;;13.10
9119;BMP180;4594;50.994;7.126;2023-05-27T03:08:05;101760.00;;;13.10
9119;BMP180;4594;50.994;7.126;2023-05-27T03:10:32;101750.00;;;13.00
9119;BMP180;4594;50.994;7.126;2023-05-27T03:12:58;101744.00;;;13.00
9119;BMP180;4594;50.994;7.126;2023-05-27T03:15:24;101762.00;;;13.00
9119;BMP180;4594;50.994;7.126;2023-05-27T03:17:50;101751.00;;;12.90
9119;BMP180;4594;50.994;7.126;2023-05-27T03:20:15;101752.00;;;12.90
9119;BMP180;4594;50.994;7.126;2023-05-27T03:22:44;101747.00;;;12.90
9119;BMP180;4594;50.994;7.126;2023-05-27T03:25:10;101764.00;;;12.90
9119;BMP180;4594;50.994;7.126;2023-05-27T03:27:36;101760.00;;;12.80
9119;BMP180;4594;50.994;7.126;2023-05-27T03:30:05;101755.00;;;12.80
9119;BMP180;4594;50.994;7.126;2023-05-27T03:32:31;101740.00;;;12.70
9119;BMP180;4594;50.994;7.126;2023-05-27T03:34:57;101750.00;;;12.70
9119;BMP180;4594;50.994;7.126;2023-05-27T03:37:22;101747.00;;;12.70
9119;BMP180;4594;50.994;7.126;2023-05-27T03:39:48;101740.00;;;12.60
9119;BMP180;4594;50.994;7.126;2023-05-27T03:42:14;101727.00;;;12.60
9119;BMP180;4594;50.994;7.126;2023-05-27T03:44:40;101741.00;;;12.60
9119;BMP180;4594;50.994;7.126;2023-05-27T03:47:06;101743.00;;;12.60
9119;BMP180;4594;50.994;7.126;2023-05-27T03:49:31;101742.00;;;12.60
9119;BMP180;4594;50.994;7.126;2023-05-27T03:51:57;101730.00;;;12.50
9119;BMP180;4594;50.994;7.126;2023-05-27T03:54:23;101741.00;;;12.50
9119;BMP180;4594;50.994;7.126;2023-05-27T03:56:49;101736.00;;;12.50
9119;BMP180;4594;50.994;7.126;2023-05-27T03:59:16;101736.00;;;12.50
9119;BMP180;4594;50.994;7.126;2023-05-27T04:01:44;101734.00;;;12.50
9119;BMP180;4594;50.994;7.126;2023-05-27T04:04:10;101735.00;;;12.50
9119;BMP180;4594;50.994;7.126;2023-05-27T04:06:36;101735.00;;;12.50
9119;BMP180;4594;50.994;7.126;2023-05-27T04:09:02;101739.00;;;12.50
9119;BMP180;4594;50.994;7.126;2023-05-27T04:13:55;101730.00;;;12.50
9119;BMP180;4594;50.994;7.126;2023-05-27T04:16:23;101726.00;;;12.50
9119;BMP180;4594;50.994;7.126;2023-05-27T04:18:50;101740.00;;;12.50
9119;BMP180;4594;50.994;7.126;2023-05-27T04:21:18;101723.00;;;12.50
9119;BMP180;4594;50.994;7.126;2023-05-27T04:23:44;101723.00;;;12.60
9119;BMP180;4594;50.994;7.126;2023-05-27T04:26:10;101730.00;;;12.60
9119;BMP180;4594;50.994;7.126;2023-05-27T04:28:36;101718.00;;;12.60
9119;BMP180;4594;50.994;7.126;2023-05-27T04:31:05;101712.00;;;12.60
9119;BMP180;4594;50.994;7.126;2023-05-27T04:33:30;101710.00;;;12.70
9119;BMP180;4594;50.994;7.126;2023-05-27T04:35:56;101709.00;;;12.70
9119;BMP180;4594;50.994;7.126;2023-05-27T04:38:22;101719.00;;;12.80
9119;BMP180;4594;50.994;7.126;2023-05-27T04:40:51;101735.00;;;12.80
9119;BMP180;4594;50.994;7.126;2023-05-27T04:43:20;101719.00;;;12.90
9119;BMP180;4594;50.994;7.126;2023-05-27T04:45:47;101722.00;;;13.00
9119;BMP180;4594;50.994;7.126;2023-05-27T04:48:13;101714.00;;;13.10
9119;BMP180;4594;50.994;7.126;2023-05-27T04:50:40;101712.00;;;13.20
9119;BMP180;4594;50.994;7.126;2023-05-27T04:53:07;101714.00;;;13.40
9119;BMP180;4594;50.994;7.126;2023-05-27T04:55:33;101719.00;;;13.50
9119;BMP180;4594;50.994;7.126;2023-05-27T04:57:59;101721.00;;;13.70
9119;BMP180;4594;50.994;7.126;2023-05-27T05:00:28;101726.00;;;13.90
9119;BMP180;4594;50.994;7.126;2023-05-27T05:03:19;101730.00;;;14.20
9119;BMP180;4594;50.994;7.126;2023-05-27T05:05:52;101723.00;;;14.40
9119;BMP180;4594;50.994;7.126;2023-05-27T05:08:20;101724.00;;;14.70
9119;BMP180;4594;50.994;7.126;2023-05-27T05:10:51;101732.00;;;15.10
9119;BMP180;4594;50.994;7.126;2023-05-27T05:13:17;101726.00;;;15.40
9119;BMP180;4594;50.994;7.126;2023-05-27T05:15:42;101727.00;;;15.80
9119;BMP180;4594;50.994;7.126;2023-05-27T05:18:11;101729.00;;;16.20
9119;BMP180;4594;50.994;7.126;2023-05-27T05:20:37;101731.00;;;16.60
9119;BMP180;4594;50.994;7.126;2023-05-27T05:23:03;101721.00;;;17.10
9119;BMP180;4594;50.994;7.126;2023-05-27T05:25:29;101731.00;;;17.60
9119;BMP180;4594;50.994;7.126;2023-05-27T05:28:06;101740.00;;;18.00
9119;BMP180;4594;50.994;7.126;2023-05-27T05:30:33;101738.00;;;18.50
9119;BMP180;4594;50.994;7.126;2023-05-27T05:32:59;101741.00;;;18.90
9119;BMP180;4594;50.994;7.126;2023-05-27T05:35:25;101737.00;;;19.40
9119;BMP180;4594;50.994;7.126;2023-05-27T05:37:51;101741.00;;;19.80
9119;BMP180;4594;50.994;7.126;2023-05-27T05:40:17;101748.00;;;20.30
9119;BMP180;4594;50.994;7.126;2023-05-27T05:42:43;101738.00;;;20.70
9119;BMP180;4594;50.994;7.126;2023-05-27T05:45:08;101739.00;;;21.20
9119;BMP180;4594;50.994;7.126;2023-05-27T05:47:34;101730.00;;;21.60
9119;BMP180;4594;50.994;7.126;2023-05-27T05:50:00;101735.00;;;22.10
9119;BMP180;4594;50.994;7.126;2023-05-27T05:52:25;101739.00;;;22.50
9119;BMP180;4594;50.994;7.126;2023-05-27T05:54:51;101742.00;;;23.00
9119;BMP180;4594;50.994;7.126;2023-05-27T05:57:17;101738.00;;;23.40
9119;BMP180;4594;50.994;7.126;2023-05-27T05:59:42;101737.00;;;23.80
9119;BMP180;4594;50.994;7.126;2023-05-27T06:02:08;101731.00;;;24.20
9119;BMP180;4594;50.994;7.126;2023-05-27T06:04:34;101744.00;;;24.60
9119;BMP180;4594;50.994;7.126;2023-05-27T06:06:59;101735.00;;;25.00
9119;BMP180;4594;50.994;7.126;2023-05-27T06:09:25;101741.00;;;25.40
9119;BMP180;4594;50.994;7.126;2023-05-27T06:11:51;101745.00;;;25.80
9119;BMP180;4594;50.994;7.126;2023-05-27T06:14:17;101745.00;;;26.20
9119;BMP180;4594;50.994;7.126;2023-05-27T06:16:43;101737.00;;;26.70
9119;BMP180;4594;50.994;7.126;2023-05-27T06:19:09;101739.00;;;27.10
9119;BMP180;4594;50.994;7.126;2023-05-27T06:21:34;101744.00;;;27.50
9119;BMP180;4594;50.994;7.126;2023-05-27T06:24:00;101742.00;;;27.90
9119;BMP180;4594;50.994;7.126;2023-05-27T06:26:26;101741.00;;;28.30
9119;BMP180;4594;50.994;7.126;2023-05-27T06:28:53;101735.00;;;28.70
9119;BMP180;4594;50.994;7.126;2023-05-27T06:31:19;101737.00;;;29.00
9119;BMP180;4594;50.994;7.126;2023-05-27T06:33:44;101735.00;;;29.40
9119;BMP180;4594;50.994;7.126;2023-05-27T06:36:10;101731.00;;;29.80
9119;BMP180;4594;50.994;7.126;2023-05-27T06:38:36;101731.00;;;30.10
9119;BMP180;4594;50.994;7.126;2023-05-27T06:41:02;101726.00;;;30.40
9119;BMP180;4594;50.994;7.126;2023-05-27T06:43:28;101726.00;;;30.70
9119;BMP180;4594;50.994;7.126;2023-05-27T06:45:53;101722.00;;;31.00
9119;BMP180;4594;50.994;7.126;2023-05-27T06:48:19;101717.00;;;31.30
9119;BMP180;4594;50.994;7.126;2023-05-27T06:50:45;101720.00;;;31.70
9119;BMP180;4594;50.994;7.126;2023-05-27T06:53:11;101722.00;;;32.00
9119;BMP180;4594;50.994;7.126;2023-05-27T06:55:37;101723.00;;;32.20
9119;BMP180;4594;50.994;7.126;2023-05-27T06:58:02;101720.00;;;32.40
9119;BMP180;4594;50.994;7.126;2023-05-27T07:00:28;101714.00;;;32.50
9119;BMP180;4594;50.994;7.126;2023-05-27T07:02:54;101720.00;;;32.70
9119;BMP180;4594;50.994;7.126;2023-05-27T07:05:19;101711.00;;;32.90
9119;BMP180;4594;50.994;7.126;2023-05-27T07:07:45;101719.00;;;33.20
9119;BMP180;4594;50.994;7.126;2023-05-27T07:10:11;101715.00;;;33.60
9119;BMP180;4594;50.994;7.126;2023-05-27T07:12:36;101715.00;;;33.90
9119;BMP180;4594;50.994;7.126;2023-05-27T07:15:02;101725.00;;;34.20
9119;BMP180;4594;50.994;7.126;2023-05-27T07:17:28;101714.00;;;34.30
9119;BMP180;4594;50.994;7.126;2023-05-27T07:19:54;101716.00;;;34.50
9119;BMP180;4594;50.994;7.126;2023-05-27T07:22:20;101717.00;;;34.70
9119;BMP180;4594;50.994;7.126;2023-05-27T07:24:45;101720.00;;;35.00
9119;BMP180;4594;50.994;7.126;2023-05-27T07:27:11;101721.00;;;35.20
9119;BMP180;4594;50.994;7.126;2023-05-27T07:29:37;101712.00;;;35.40
9119;BMP180;4594;50.994;7.126;2023-05-27T07:32:02;101712.00;;;35.60
9119;BMP180;4594;50.994;7.126;2023-05-27T07:34:29;101709.00;;;35.80
9119;BMP180;4594;50.994;7.126;2023-05-27T07:36:55;101705.00;;;35.90
9119;BMP180;4594;50.994;7.126;2023-05-27T07:39:21;101699.00;;;35.90
9119;BMP180;4594;50.994;7.126;2023-05-27T07:41:47;101690.00;;;36.00
9119;BMP180;4594;50.994;7.126;2023-05-27T07:44:12;101686.00;;;36.10
9119;BMP180;4594;50.994;7.126;2023-05-27T07:46:38;101686.00;;;36.30
9119;BMP180;4594;50.994;7.126;2023-05-27T07:49:04;101680.00;;;36.40
9119;BMP180;4594;50.994;7.126;2023-05-27T07:51:31;101687.00;;;36.50
9119;BMP180;4594;50.994;7.126;2023-05-27T07:53:57;101689.00;;;36.70
9119;BMP180;4594;50.994;7.126;2023-05-27T07:56:23;101682.00;;;36.80
9119;BMP180;4594;50.994;7.126;2023-05-27T07:58:48;101675.00;;;37.00
9119;BMP180;4594;50.994;7.126;2023-05-27T08:01:14;101671.00;;;37.20
9119;BMP180;4594;50.994;7.126;2023-05-27T08:03:40;101673.00;;;37.60
9119;BMP180;4594;50.994;7.126;2023-05-27T08:06:06;101670.00;;;37.80
9119;BMP180;4594;50.994;7.126;2023-05-27T08:08:32;101665.00;;;38.00
9119;BMP180;4594;50.994;7.126;2023-05-27T08:10:58;101659.00;;;38.30
9119;BMP180;4594;50.994;7.126;2023-05-27T08:13:24;101660.00;;;38.60
9119;BMP180;4594;50.994;7.126;2023-05-27T08:15:49;101652.00;;;38.90
9119;BMP180;4594;50.994;7.126;2023-05-27T08:18:15;101643.00;;;39.30
9119;BMP180;4594;50.994;7.126;2023-05-27T08:20:41;101650.00;;;39.60
9119;BMP180;4594;50.994;7.126;2023-05-27T08:23:06;101645.00;;;39.80
9119;BMP180;4594;50.994;7.126;2023-05-27T08:25:32;101648.00;;;40.10
9119;BMP180;4594;50.994;7.126;2023-05-27T08:27:58;101631.00;;;40.40
9119;BMP180;4594;50.994;7.126;2023-05-27T08:30:28;101630.00;;;40.70
9119;BMP180;4594;50.994;7.126;2023-05-27T08:32:57;101631.00;;;41.10
9119;BMP180;4594;50.994;7.126;2023-05-27T08:35:23;101623.00;;;41.30
9119;BMP180;4594;50.994;7.126;2023-05-27T08:37:49;101624.00;;;41.60
9119;BMP180;4594;50.994;7.126;2023-05-27T08:40:17;101608.00;;;41.90
9119;BMP180;4594;50.994;7.126;2023-05-27T08:42:44;101613.00;;;42.20
9119;BMP180;4594;50.994;7.126;2023-05-27T08:45:11;101621.00;;;42.40
9119;BMP180;4594;50.994;7.126;2023-05-27T08:47:38;101621.00;;;42.40
9119;BMP180;4594;50.994;7.126;2023-05-27T08:50:05;101620.00;;;42.20
9119;BMP180;4594;50.994;7.126;2023-05-27T08:52:33;101612.00;;;42.10
9119;BMP180;4594;50.994;7.126;2023-05-27T08:55:00;101605.00;;;42.10
9119;BMP180;4594;50.994;7.126;2023-05-27T08:57:31;101616.00;;;42.30
9119;BMP180;4594;50.994;7.126;2023-05-27T08:59:58;101600.00;;;42.50
9119;BMP180;4594;50.994;7.126;2023-05-27T09:02:25;101600.00;;;42.80
9119;BMP180;4594;50.994;7.126;2023-05-27T09:04:52;101591.00;;;42.80
9119;BMP180;4594;50.994;7.126;2023-05-27T09:07:21;101592.00;;;42.90
9119;BMP180;4594;50.994;7.126;2023-05-27T09:09:58;101592.00;;;43.10
9119;BMP180;4594;50.994;7.126;2023-05-27T09:12:25;101588.00;;;43.00
9119;BMP180;4594;50.994;7.126;2023-05-27T09:14:51;101584.00;;;43.20
9119;BMP180;4594;50.994;7.126;2023-05-27T09:17:17;101583.00;;;43.30
9119;BMP180;4594;50.994;7.126;2023-05-27T09:19:45;101583.00;;;43.40
9119;BMP180;4594;50.994;7.126;2023-05-27T09:22:24;101581.00;;;43.60
9119;BMP180;4594;50.994;7.126;2023-05-27T09:24:52;101586.00;;;43.90
9119;BMP180;4594;50.994;7.126;2023-05-27T09:27:24;101582.00;;;44.10
9119;BMP180;4594;50.994;7.126;2023-05-27T09:29:50;101577.00;;;44.20
9119;BMP180;4594;50.994;7.126;2023-05-27T09:32:32;101571.00;;;44.40
9119;BMP180;4594;50.994;7.126;2023-05-27T09:34:59;101563.00;;;44.90
9119;BMP180;4594;50.994;7.126;2023-05-27T09:37:31;101570.00;;;45.30
9119;BMP180;4594;50.994;7.126;2023-05-27T09:40:11;101569.00;;;45.60
9119;BMP180;4594;50.994;7.126;2023-05-27T09:42:48;101562.00;;;45.70
9119;BMP180;4594;50.994;7.126;2023-05-27T09:45:20;101554.00;;;45.90
9119;BMP180;4594;50.994;7.126;2023-05-27T09:47:51;101552.00;;;46.30
9119;BMP180;4594;50.994;7.126;2023-05-27T09:50:19;101555.00;;;46.80
9119;BMP180;4594;50.994;7.126;2023-05-27T09:52:49;101550.00;;;47.30
9119;BMP180;4594;50.994;7.126;2023-05-27T09:55:16;101538.00;;;47.70
9119;BMP180;4594;50.994;7.126;2023-05-27T09:57:44;101545.00;;;47.90
9119;BMP180;4594;50.994;7.126;2023-05-27T10:00:11;101540.00;;;48.10
9119;BMP180;4594;50.994;7.126;2023-05-27T10:02:44;101540.00;;;48.40
9119;BMP180;4594;50.994;7.126;2023-05-27T10:05:16;101539.00;;;48.60
9119;BMP180;4594;50.994;7.126;2023-05-27T10:07:44;101546.00;;;48.80
9119;BMP180;4594;50.994;7.126;2023-05-27T10:10:18;101533.00;;;49.00
9119;BMP180;4594;50.994;7.126;2023-05-27T10:12:46;101530.00;;;49.00
9119;BMP180;4594;50.994;7.126;2023-05-27T10:15:33;101522.00;;;48.80
9119;BMP180;4594;50.994;7.126;2023-05-27T10:18:06;101519.00;;;48.90
9119;BMP180;4594;50.994;7.126;2023-05-27T10:20:38;101514.00;;;49.10
9119;BMP180;4594;50.994;7.126;2023-05-27T10:23:24;101514.00;;;49.40
9119;BMP180;4594;50.994;7.126;2023-05-27T10:26:04;101510.00;;;49.70
9119;BMP180;4594;50.994;7.126;2023-05-27T10:28:36;101510.00;;;49.80
9119;BMP180;4594;50.994;7.126;2023-05-27T10:31:29;101512.00;;;49.90
9119;BMP180;4594;50.994;7.126;2023-05-27T10:33:57;101512.00;;;49.80
9119;BMP180;4594;50.994;7.126;2023-05-27T10:36:26;101489.00;;;50.00
9119;BMP180;4594;50.994;7.126;2023-05-27T10:38:57;101501.00;;;49.90
9119;BMP180;4594;50.994;7.126;2023-05-27T10:41:23;101491.00;;;49.50
9119;BMP180;4594;50.994;7.126;2023-05-27T10:43:59;101498.00;;;49.40
9119;BMP180;4594;50.994;7.126;2023-05-27T10:46:26;101508.00;;;49.40
9119;BMP180;4594;50.994;7.126;2023-05-27T10:48:52;101496.00;;;49.30
9119;BMP180;4594;50.994;7.126;2023-05-27T10:51:17;101475.00;;;49.30
9119;BMP180;4594;50.994;7.126;2023-05-27T10:53:43;101494.00;;;49.10
9119;BMP180;4594;50.994;7.126;2023-05-27T10:56:09;101493.00;;;48.90
9119;BMP180;4594;50.994;7.126;2023-05-27T10:58:38;101498.00;;;48.50
9119;BMP180;4594;50.994;7.126;2023-05-27T11:01:11;101494.00;;;47.90
9119;BMP180;4594;50.994;7.126;2023-05-27T11:03:46;101481.00;;;47.60
9119;BMP180;4594;50.994;7.126;2023-05-27T11:06:14;101467.00;;;47.40
9119;BMP180;4594;50.994;7.126;2023-05-27T11:08:42;101471.00;;;47.20
9119;BMP180;4594;50.994;7.126;2023-05-27T11:11:10;101470.00;;;47.20
9119;BMP180;4594;50.994;7.126;2023-05-27T11:13:43;101485.00;;;47.10
9119;BMP180;4594;50.994;7.126;2023-05-27T11:16:11;101468.00;;;46.90
9119;BMP180;4594;50.994;7.126;2023-05-27T11:18:47;101476.00;;;46.60
9119;BMP180;4594;50.994;7.126;2023-05-27T11:21:16;101451.00;;;46.20
9119;BMP180;4594;50.994;7.126;2023-05-27T11:23:48;101463.00;;;45.80
9119;BMP180;4594;50.994;7.126;2023-05-27T11:26:22;101449.00;;;45.40
9119;BMP180;4594;50.994;7.126;2023-05-27T11:28:55;101463.00;;;45.20
9119;BMP180;4594;50.994;7.126;2023-05-27T11:31:29;101467.00;;;44.90
9119;BMP180;4594;50.994;7.126;2023-05-27T11:33:55;101461.00;;;44.00
9119;BMP180;4594;50.994;7.126;2023-05-27T11:36:21;101469.00;;;42.80
9119;BMP180;4594;50.994;7.126;2023-05-27T11:38:56;101460.00;;;41.70
9119;BMP180;4594;50.994;7.126;2023-05-27T11:41:28;101457.00;;;40.60
9119;BMP180;4594;50.994;7.126;2023-05-27T11:44:06;101459.00;;;39.60
9119;BMP180;4594;50.994;7.126;2023-05-27T11:46:43;101458.00;;;38.60
9119;BMP180;4594;50.994;7.126;2023-05-27T11:49:12;101454.00;;;37.80
9119;BMP180;4594;50.994;7.126;2023-05-27T11:51:41;101453.00;;;37.00
9119;BMP180;4594;50.994;7.126;2023-05-27T11:54:14;101444.00;;;36.30
9119;BMP180;4594;50.994;7.126;2023-05-27T11:56:40;101431.00;;;35.50
9119;BMP180;4594;50.994;7.126;2023-05-27T11:59:06;101428.00;;;34.90
9119;BMP180;4594;50.994;7.126;2023-05-27T12:01:31;101418.00;;;34.40
9119;BMP180;4594;50.994;7.126;2023-05-27T12:03:57;101415.00;;;33.90
9119;BMP180;4594;50.994;7.126;2023-05-27T12:06:23;101422.00;;;33.50
9119;BMP180;4594;50.994;7.126;2023-05-27T12:08:48;101420.00;;;33.20
9119;BMP180;4594;50.994;7.126;2023-05-27T12:11:14;101404.00;;;32.90
9119;BMP180;4594;50.994;7.126;2023-05-27T12:13:40;101409.00;;;32.70
9119;BMP180;4594;50.994;7.126;2023-05-27T12:16:06;101403.00;;;32.50
9119;BMP180;4594;50.994;7.126;2023-05-27T12:18:32;101394.00;;;32.30
9119;BMP180;4594;50.994;7.126;2023-05-27T12:20:57;101397.00;;;32.00
9119;BMP180;4594;50.994;7.126;2023-05-27T12:23:23;101389.00;;;31.80
9119;BMP180;4594;50.994;7.126;2023-05-27T12:25:49;101378.00;;;31.60
9119;BMP180;4594;50.994;7.126;2023-05-27T12:28:14;101376.00;;;31.40
9119;BMP180;4594;50.994;7.126;2023-05-27T12:30:40;101370.00;;;31.30
9119;BMP180;4594;50.994;7.126;2023-05-27T12:33:06;101367.00;;;31.10
9119;BMP180;4594;50.994;7.126;2023-05-27T12:35:33;101367.00;;;31.00
9119;BMP180;4594;50.994;7.126;2023-05-27T12:38:00;101359.00;;;30.90
9119;BMP180;4594;50.994;7.126;2023-05-27T12:40:26;101358.00;;;30.70
9119;BMP180;4594;50.994;7.126;2023-05-27T12:42:52;101361.00;;;30.70
9119;BMP180;4594;50.994;7.126;2023-05-27T12:45:18;101367.00;;;30.60
9119;BMP180;4594;50.994;7.126;2023-05-27T12:47:48;101366.00;;;30.50
9119;BMP180;4594;50.994;7.126;2023-05-27T12:50:14;101368.00;;;30.30
9119;BMP180;4594;50.994;7.126;2023-05-27T12:52:40;101364.00;;;30.20
9119;BMP180;4594;50.994;7.126;2023-05-27T12:55:15;101348.00;;;30.10
9119;BMP180;4594;50.994;7.126;2023-05-27T12:57:43;101339.00;;;30.10
9119;BMP180;4594;50.994;7.126;2023-05-27T13:00:10;101350.00;;;30.00
9119;BMP180;4594;50.994;7.126;2023-05-27T13:02:37;101331.00;;;29.90
9119;BMP180;4594;50.994;7.126;2023-05-27T13:05:05;101336.00;;;29.90
9119;BMP180;4594;50.994;7.126;2023-05-27T13:07:35;101338.00;;;29.80
9119;BMP180;4594;50.994;7.126;2023-05-27T13:10:03;101338.00;;;29.70
9119;BMP180;4594;50.994;7.126;2023-05-27T13:12:31;101324.00;;;29.60
9119;BMP180;4594;50.994;7.126;2023-05-27T13:14:59;101309.00;;;29.60
9119;BMP180;4594;50.994;7.126;2023-05-27T13:17:25;101307.00;;;29.50
9119;BMP180;4594;50.994;7.126;2023-05-27T13:19:51;101318.00;;;29.40
9119;BMP180;4594;50.994;7.126;2023-05-27T13:22:16;101319.00;;;29.30
9119;BMP180;4594;50.994;7.126;2023-05-27T13:24:42;101306.00;;;29.30
9119;BMP180;4594;50.994;7.126;2023-05-27T13:27:08;101304.00;;;29.30
9119;BMP180;4594;50.994;7.126;2023-05-27T13:29:35;101298.00;;;29.20
9119;BMP180;4594;50.994;7.126;2023-05-27T13:32:01;101295.00;;;29.10
9119;BMP180;4594;50.994;7.126;2023-05-27T13:34:27;101311.00;;;29.10
9119;BMP180;4594;50.994;7.126;2023-05-27T13:36:55;101307.00;;;29.10
9119;BMP180;4594;50.994;7.126;2023-05-27T13:39:21;101285.00;;;29.00
9119;BMP180;4594;50.994;7.126;2023-05-27T13:41:47;101289.00;;;29.00
9119;BMP180;4594;50.994;7.126;2023-05-27T13:44:13;101278.00;;;29.00
9119;BMP180;4594;50.994;7.126;2023-05-27T13:46:38;101279.00;;;29.00
9119;BMP180;4594;50.994;7.126;2023-05-27T13:49:04;101270.00;;;29.00
9119;BMP180;4594;50.994;7.126;2023-05-27T13:51:30;101279.00;;;28.90
9119;BMP180;4594;50.994;7.126;2023-05-27T13:53:58;101275.00;;;28.90
9119;BMP180;4594;50.994;7.126;2023-05-27T13:56:24;101266.00;;;28.90
9119;BMP180;4594;50.994;7.126;2023-05-27T13:58:51;101247.00;;;28.90
9119;BMP180;4594;50.994;7.126;2023-05-27T14:01:18;101245.00;;;28.80
9119;BMP180;4594;50.994;7.126;2023-05-27T14:03:45;101256.00;;;28.80
9119;BMP180;4594;50.994;7.126;2023-05-27T14:06:10;101240.00;;;28.80
9119;BMP180;4594;50.994;7.126;2023-05-27T14:08:36;101263.00;;;28.80
9119;BMP180;4594;50.994;7.126;2023-05-27T14:11:02;101243.00;;;28.80
9119;BMP180;4594;50.994;7.126;2023-05-27T14:13:28;101243.00;;;28.70
9119;BMP180;4594;50.994;7.126;2023-05-27T14:15:54;101230.00;;;28.70
9119;BMP180;4594;50.994;7.126;2023-05-27T14:18:20;101233.00;;;28.60
9119;BMP180;4594;50.994;7.126;2023-05-27T14:20:45;101231.00;;;28.60
9119;BMP180;4594;50.994;7.126;2023-05-27T14:23:11;101227.00;;;28.60
9119;BMP180;4594;50.994;7.126;2023-05-27T14:25:39;101220.00;;;28.60
9119;BMP180;4594;50.994;7.126;2023-05-27T14:28:05;101226.00;;;28.60
9119;BMP180;4594;50.994;7.126;2023-05-27T14:30:32;101209.00;;;28.60